Latest Weather Observations for Braidwood

IDN60801

Issued at 9:05 pm EDT Thursday 29 January 2015 (issued every 30 minutes, with the page automatically refreshed every 10 minutes)

About weather observations | Map of weather stations | Latest weather observations for NSW | Other Formats
Station Details ID: 069132 Name: BRAIDWOOD RACECOURSE AWS Lat: -35.43 Lon: 149.78 Height: 665.2 m
Data from the previous 72 hours. | See also: Recent months at Braidwood
Date/Time
EDT
Temp
°C
App
Temp
°C
Dew
Point
Rel
Hum
%
Delta-T
°C
Wind Press
QNH
hPa
Press
MSL
hPa
Rain
since 9 am
mm
Dir
 
Spd
km/h
Gust
km/h
Spd
kts
Gust
kts
29/09:00pm 10.9 8.0 8.0 82 1.5 S 13 20 7 11 1013.8 1010.9 1.8
29/08:30pm 12.4 9.3 8.7 78 1.9 S 15 22 8 12 1013.9 1011.0 1.8
29/08:00pm 12.2 10.4 9.6 84 1.4 SSW 9 17 5 9 1013.6 1010.7 1.8
29/07:30pm 12.4 9.5 9.6 83 1.5 S 15 22 8 12 1013.5 1010.6 1.6
29/07:00pm 13.0 10.2 8.7 75 2.2 S 13 19 7 10 1013.3 1010.4 1.4
29/06:30pm 15.3 12.7 10.7 74 2.5 SSE 15 20 8 11 1013.1 1010.1 1.2
29/06:00pm 13.9 11.1 10.1 78 2.0 S 15 20 8 11 1013.0 1010.0 1.2
29/05:30pm 13.1 8.9 9.9 81 1.7 S 22 33 12 18 1013.1 1010.1 1.0
29/05:00pm 16.5 14.7 10.8 69 3.2 S 11 19 6 10 1012.8 1009.8 0.2
29/04:30pm 16.3 10.7 7.3 55 4.6 S 26 37 14 20 1013.1 1010.1 0.0
29/04:00pm 18.3 14.0 8.0 51 5.5 S 20 37 11 20 1012.9 1009.9 0.0
29/03:30pm 16.9 12.7 7.3 53 5.0 SSW 19 33 10 18 1013.2 1010.2 0.0
29/03:00pm 17.1 13.1 6.6 50 5.4 SSW 17 30 9 16 1013.4 1010.5 0.0
29/02:30pm 16.9 11.8 6.1 49 5.5 S 22 33 12 18 1013.6 1010.7 0.0
29/02:00pm 17.9 12.4 7.6 51 5.4 S 26 35 14 19 1013.9 1011.0 0.0
29/01:30pm 16.9 12.0 7.0 52 5.1 SSE 22 35 12 19 1014.2 1011.2 0.0
29/01:00pm 17.2 13.9 9.4 60 4.2 S 17 26 9 14 1014.6 1011.7 0.0
29/12:30pm 16.2 11.4 7.2 55 4.6 SSE 22 35 12 19 1014.6 1011.7 0.0
29/12:00pm 16.2 11.1 7.7 57 4.4 SSE 24 33 13 18 1014.9 1012.0 0.0
29/11:30am 14.4 10.9 7.2 62 3.7 SSW 15 24 8 13 1014.8 1011.9 0.0
29/11:00am 14.7 10.3 6.5 58 4.1 S 19 26 10 14 1015.2 1012.3 0.0
29/10:30am 14.2 9.8 6.6 60 3.8 S 19 30 10 16 1015.4 1012.5 0.0
29/10:00am 14.4 10.0 7.2 62 3.7 S 20 33 11 18 1015.3 1012.4 0.0
29/09:30am 13.9 9.5 6.5 61 3.7 SSW 19 26 10 14 1015.4 1012.5 0.0
29/09:00am 13.1 8.0 6.2 63 3.4 SSW 22 32 12 17 1015.5 1012.6 0.6
29/08:30am 12.1 7.2 5.0 62 3.4 SSW 20 30 11 16 1015.5 1012.6 0.6
29/08:00am 11.4 7.1 5.3 66 2.9 SSW 17 30 9 16 1015.4 1012.5 0.6
29/07:30am 10.4 8.1 5.6 72 2.3 SSE 7 17 4 9 1015.3 1012.4 0.6
29/07:00am 9.4 6.1 4.8 73 2.1 SSW 11 17 6 9 1015.2 1012.3 0.6
29/06:30am 8.2 4.4 4.0 75 1.9 S 13 24 7 13 1015.0 1012.1 0.6
29/06:00am 9.2 6.0 5.0 75 2.0 SSW 11 19 6 10 1014.8 1011.9 0.6
29/05:30am 8.7 5.8 4.5 75 1.9 SW 9 17 5 9 1014.7 1011.8 0.6
29/05:00am 8.3 5.8 4.7 78 1.7 SSW 7 9 4 5 1014.7 1011.8 0.6
29/04:30am 9.6 6.5 5.6 76 1.9 SSW 11 19 6 10 1014.8 1011.9 0.6
29/04:00am 9.4 6.1 6.3 81 1.5 SW 13 24 7 13 1014.8 1011.9 0.6
29/03:30am 10.0 6.1 6.9 81 1.5 S 17 26 9 14 1014.9 1012.0 0.6
29/03:00am 7.8 6.8 5.8 87 0.9 CALM 0 0 0 0 1015.1 1012.2 0.6
29/02:30am 8.2 7.0 6.3 88 0.9 S 2 7 1 4 1015.5 1012.6 0.6
29/02:00am 8.7 6.6 6.5 86 1.1 S 7 13 4 7 1015.8 1012.8 0.6
29/01:30am 9.9 5.7 7.3 84 1.3 S 19 24 10 13 1016.2 1013.3 0.6
29/01:00am 9.5 6.5 7.6 88 0.9 S 13 19 7 10 1016.3 1013.4 0.6
29/12:30am 9.9 6.3 8.2 89 0.9 S 17 26 9 14 1016.5 1013.6 0.6
29/12:00am 10.0 6.8 8.6 91 0.7 S 15 20 8 11 1016.7 1013.8 0.6
 
Date/Time
EDT
Temp
°C
App
Temp
°C
Dew
Point
Rel
Hum
%
Delta-T
°C
Wind Press
QNH
hPa
Press
MSL
hPa
Rain
since 9 am
mm
Dir
 
Spd
km/h
Gust
km/h
Spd
kts
Gust
kts
28/11:30pm 10.5 7.1 9.1 91 0.7 S 17 26 9 14 1016.9 1014.0 0.6
28/11:00pm 10.4 8.4 8.8 90 0.8 SSE 9 19 5 10 1017.1 1014.2 0.6
28/10:30pm 10.8 8.1 9.1 89 0.9 SSE 13 20 7 11 1017.2 1014.4 0.6
28/10:00pm 11.2 9.8 9.6 90 0.8 SSE 7 11 4 6 1017.5 1014.6 0.6
28/09:30pm 10.8 8.5 8.9 88 1.0 S 11 17 6 9 1017.4 1014.5 0.6
28/09:00pm 11.0 8.3 8.8 86 1.1 S 13 19 7 10 1017.2 1014.4 0.6
28/08:30pm 11.9 9.2 9.1 83 1.5 S 13 17 7 9 1017.1 1014.2 0.6
28/08:00pm 12.1 9.4 9.1 82 1.6 S 13 19 7 10 1016.9 1014.0 0.6
28/07:30pm 12.4 9.4 9.2 81 1.7 SSE 15 20 8 11 1016.8 1013.9 0.6
28/07:00pm 12.6 9.1 8.9 78 1.9 SSE 17 22 9 12 1016.7 1013.8 0.6
28/06:30pm 12.7 9.4 8.0 73 2.4 SSE 15 20 8 11 1016.6 1013.7 0.6
28/06:00pm 12.8 9.8 9.3 79 1.8 SSE 15 24 8 13 1016.7 1013.8 0.6
28/05:30pm 12.4 8.6 9.8 84 1.4 SE 20 32 11 17 1016.8 1013.9 0.6
28/05:00pm 12.5 9.1 10.4 87 1.1 SE 19 32 10 17 1016.7 1013.8 0.6
28/04:30pm 14.7 10.4 10.9 78 2.1 SE 24 35 13 19 1016.4 1013.5 0.2
28/04:00pm 13.6 11.3 11.8 89 1.0 SSE 15 24 8 13 1016.5 1013.6 0.2
28/03:30pm 15.8 11.8 10.6 71 2.9 SSE 22 33 12 18 1016.5 1013.6 0.0
28/03:00pm 15.9 10.6 10.0 68 3.2 SE 28 37 15 20 1016.3 1013.4 0.0
28/02:30pm 16.3 12.4 10.8 70 3.0 ESE 22 32 12 17 1016.3 1013.4 0.0
28/02:00pm 16.6 12.1 11.5 72 2.9 ESE 26 37 14 20 1016.6 1013.7 0.0
28/01:30pm 16.9 13.1 11.0 68 3.3 ESE 22 37 12 20 1016.5 1013.6 0.0
28/01:00pm 17.0 13.9 11.5 70 3.1 ESE 19 30 10 16 1016.7 1013.8 0.0
28/12:30pm 17.2 14.4 10.1 63 3.9 SSE 15 26 8 14 1016.7 1013.8 0.0
28/12:00pm 17.1 13.5 10.5 65 3.6 SSE 20 30 11 16 1016.8 1013.9 0.0
28/11:30am 16.9 13.2 10.1 64 3.7 SE 20 33 11 18 1016.9 1014.0 0.0
28/11:00am 15.9 12.5 10.4 70 3.0 SSE 19 32 10 17 1017.0 1014.1 0.0
28/10:30am 15.1 12.1 10.5 74 2.5 SSE 17 26 9 14 1017.0 1014.1 0.0
28/10:00am 15.1 11.5 10.7 75 2.4 SSE 20 30 11 16 1017.0 1014.1 0.0
28/09:30am 14.2 10.6 10.6 79 2.0 S 20 26 11 14 1017.0 1014.1 0.0
28/09:00am 13.7 10.3 11.2 85 1.4 S 20 24 11 13 1016.9 1014.0 0.6
28/08:30am 12.9 10.0 11.0 88 1.0 S 17 24 9 13 1016.8 1013.9 0.6
28/08:00am 12.7 9.8 11.1 90 0.9 S 17 20 9 11 1016.5 1013.6 0.6
28/07:30am 12.2 10.1 11.1 93 0.6 S 13 20 7 11 1016.3 1013.4 0.6
28/07:00am 11.2 9.2 10.3 94 0.5 S 11 15 6 8 1016.0 1013.1 0.6
28/06:30am 11.2 9.2 10.1 93 0.6 S 11 15 6 8 1015.4 1012.5 0.6
28/06:00am 11.6 8.9 10.5 93 0.6 S 15 20 8 11 1015.2 1012.3 0.6
28/05:30am 11.7 9.4 10.6 93 0.6 S 13 20 7 11 1015.1 1012.2 0.6
28/05:00am 11.7 9.5 10.8 94 0.5 S 13 17 7 9 1015.2 1012.3 0.6
28/04:30am 11.8 10.0 10.9 94 0.5 SSE 11 17 6 9 1015.3 1012.4 0.6
28/04:00am 11.7 9.5 10.9 95 0.4 S 13 19 7 10 1015.2 1012.3 0.6
28/03:30am 11.6 9.4 10.8 95 0.4 S 13 17 7 9 1015.2 1012.3 0.6
28/03:00am 11.7 9.1 10.8 94 0.5 S 15 20 8 11 1015.3 1012.4 0.6
28/02:30am 12.1 9.7 11.3 95 0.4 SSE 15 20 8 11 1015.5 1012.6 0.6
28/02:00am 12.2 10.9 11.4 95 0.4 SSE 9 15 5 8 1015.8 1012.8 0.6
28/01:30am 12.3 10.7 11.5 95 0.4 SSE 11 19 6 10 1015.9 1012.9 0.6
28/01:00am 12.3 9.9 11.5 95 0.4 SSE 15 24 8 13 1016.0 1013.1 0.6
28/12:30am 12.5 10.5 11.6 94 0.5 S 13 17 7 9 1016.3 1013.4 0.6
28/12:00am 12.5 10.9 11.4 93 0.6 S 11 17 6 9 1016.5 1013.6 0.6
 
Date/Time
EDT
Temp
°C
App
Temp
°C
Dew
Point
Rel
Hum
%
Delta-T
°C
Wind Press
QNH
hPa
Press
MSL
hPa
Rain
since 9 am
mm
Dir
 
Spd
km/h
Gust
km/h
Spd
kts
Gust
kts
27/11:30pm 12.5 10.4 11.2 92 0.7 S 13 19 7 10 1016.6 1013.7 0.6
27/11:00pm 12.4 10.0 11.5 94 0.5 S 15 20 8 11 1016.6 1013.7 0.6
27/10:30pm 12.5 10.9 11.6 94 0.5 S 11 17 6 9 1016.6 1013.7 0.4
27/10:00pm 12.4 10.8 11.5 94 0.5 SSE 11 15 6 8 1016.6 1013.7 0.4
27/09:30pm 12.0 10.7 11.1 94 0.5 S 9 13 5 7 1016.5 1013.6 0.4
27/09:00pm 12.0 10.3 11.2 95 0.4 S 11 15 6 8 1016.5 1013.6 0.4
27/08:30pm 12.2 9.7 10.9 92 0.7 SSE 15 20 8 11 1016.2 1013.3 0.4
27/08:00pm 12.4 9.5 11.0 91 0.8 SSE 17 22 9 12 1016.0 1013.1 0.4
27/07:30pm 12.7 10.7 11.4 92 0.7 SSE 13 19 7 10 1015.9 1012.9 0.4
27/07:00pm 13.0 10.7 11.7 92 0.7 SSE 15 20 8 11 1015.4 1012.5 0.4
27/06:30pm 13.4 11.6 12.0 91 0.8 SE 13 22 7 12 1015.1 1012.2 0.4
27/06:00pm 13.6 11.3 11.8 89 1.0 SE 15 20 8 11 1014.9 1012.0 0.4
27/05:30pm 14.2 11.4 11.5 84 1.5 ESE 17 22 9 12 1015.0 1012.1 0.4
27/05:00pm 14.0 11.0 11.9 87 1.2 ESE 19 24 10 13 1015.1 1012.2 0.4
27/04:30pm 14.0 11.0 11.9 87 1.2 ESE 19 24 10 13 1015.3 1012.4 0.4
27/04:00pm 13.7 11.6 12.3 91 0.8 SE 15 22 8 12 1015.5 1012.6 0.4
27/03:30pm 14.1 11.9 12.0 87 1.2 ESE 15 20 8 11 1015.8 1012.8 0.4
27/03:00pm 14.3 12.1 12.2 87 1.2 SE 15 20 8 11 1015.8 1012.8 0.4
27/02:30pm 13.6 11.4 12.2 91 0.8 SE 15 20 8 11 1016.0 1013.1 0.4
27/02:00pm 13.6 11.9 12.3 92 0.7 SE 13 19 7 10 1016.2 1013.3 0.4
27/01:30pm 13.3 11.4 11.7 90 0.9 SE 13 17 7 9 1016.5 1013.6 0.0
27/01:00pm 13.3 10.6 11.7 90 0.9 SE 17 26 9 14 1016.4 1013.5 0.0
27/12:30pm 13.3 10.1 11.9 91 0.8 SE 20 28 11 15 1016.5 1013.6 0.0
27/12:00pm 13.4 11.7 12.6 95 0.4 S 13 19 7 10 1016.5 1013.6 0.0
27/11:30am 13.4 12.5 12.6 95 0.4 S 9 15 5 8 1016.8 1013.9 0.0
27/11:00am 12.9 11.5 12.1 95 0.4 S 11 15 6 8 1016.8 1013.9 0.0
27/10:30am 13.0 11.6 12.2 95 0.4 SSE 11 15 6 8 1016.7 1013.8 0.0
27/10:00am 12.8 11.3 12.0 95 0.4 S 11 15 6 8 1016.7 1013.8 0.0
27/09:30am 12.6 11.1 12.0 96 0.3 SE 11 15 6 8 1016.7 1013.8 0.0
27/09:00am 12.4 11.3 11.8 96 0.3 S 9 15 5 8 1016.6 1013.7 1.0
27/08:30am 12.0 10.4 11.4 96 0.3 SSE 11 15 6 8 1016.5 1013.6 1.0
27/08:00am 11.9 10.2 11.3 96 0.3 S 11 15 6 8 1016.4 1013.5 0.6
27/07:30am 11.9 9.8 11.3 96 0.3 S 13 17 7 9 1016.0 1013.1 0.6
27/07:00am 11.8 10.1 11.2 96 0.3 SSE 11 17 6 9 1015.6 1012.7 0.6
27/06:30am 11.7 9.6 11.1 96 0.3 S 13 19 7 10 1015.5 1012.6 0.6
27/06:00am 11.7 10.4 11.1 96 0.3 SSE 9 15 5 8 1015.5 1012.6 0.6
27/05:30am 11.9 10.6 11.3 96 0.3 SSE 9 15 5 8 1015.5 1012.6 0.6
27/05:00am 11.7 10.7 11.1 96 0.3 SSE 7 11 4 6 1015.5 1012.6 0.4
27/04:30am 11.8 10.9 11.2 96 0.3 S 7 11 4 6 1015.6 1012.7 0.4
27/04:00am 11.8 10.5 11.2 96 0.3 S 9 11 5 6 1015.8 1012.8 0.4
27/03:30am 11.7 10.4 11.1 96 0.3 SSE 9 13 5 7 1015.9 1012.9 0.4
27/03:00am 11.8 10.9 11.2 96 0.3 SSE 7 11 4 6 1016.0 1013.1 0.4
27/02:30am 11.7 10.4 11.1 96 0.3 SSE 9 13 5 7 1016.2 1013.3 0.4
27/02:00am 11.7 10.4 11.1 96 0.3 SSE 9 15 5 8 1016.4 1013.5 0.4
27/01:30am 11.7 10.4 11.1 96 0.3 S 9 13 5 7 1016.7 1013.8 0.4
27/01:00am 11.7 10.4 11.1 96 0.3 S 9 13 5 7 1017.0 1014.1 0.2
27/12:30am 11.7 10.4 11.1 96 0.3 S 9 13 5 7 1017.0 1014.1 0.2
27/12:00am 11.8 10.9 11.2 96 0.3 S 7 11 4 6 1017.4 1014.5 0.2
 
Date/Time
EDT
Temp
°C
App
Temp
°C
Dew
Point
Rel
Hum
%
Delta-T
°C
Wind Press
QNH
hPa
Press
MSL
hPa
Rain
since 9 am
mm
Dir
 
Spd
km/h
Gust
km/h
Spd
kts
Gust
kts
26/11:30pm 11.6 10.2 11.0 96 0.3 S 9 13 5 7 1017.6 1014.7 0.2
26/11:00pm 11.6 10.5 10.8 95 0.4 S 7 13 4 7 1017.8 1014.9 0.2
26/10:30pm 11.6 10.2 10.8 95 0.4 S 9 11 5 6 1017.9 1015.0 0.0
26/10:00pm 11.7 10.7 10.9 95 0.4 SSE 7 11 4 6 1017.9 1015.0 0.0
26/09:30pm 11.5 10.4 10.6 94 0.5 S 7 11 4 6 1017.7 1014.8 0.0

Other Formats:

Comma delimited format used in spreadsheet applications
http://www.bom.gov.au/fwo/IDN60801/IDN60801.94927.axf

JavaScript Object Notation format (JSON) in row-major order
http://www.bom.gov.au/fwo/IDN60801/IDN60801.94927.json